Las Vegas, NV (89122)

8:07 AM PDT on August 25, 2016 (GMT -0700)
| | Change Station

Elev -9999 ft 0.00 °N, 0.00 °E | Updated

Clear
Clear
92 °F
Feels Like 92 °F
N
6
Wind Variable Wind from SSE
Gusts mph

Today
High -- | Low -- °F
--% Chance of Precip.
Yesterday
High -- | Low -- °F
Precip. -- in
Pressure 29.81 in
Visibility 10.0 miles
Clouds Few 25000 ft
Dew Point 41 °F
Humidity 17%
Rainfall --
Snow Depth Not available.
6:06 AM 7:16 PM
Last Quarter, 45% visible
METAR KLAS 251456Z 18007KT 10SM FEW250 31/02 A2990 RMK AO2 SLP095 HZ AND FU VC ALQDS T03060022 53016 $
Pressure 29.81 in
Visibility 10.0 miles
Clouds Few 25000 ft
Dew Point 41 °F
Humidity 17%
Rainfall --
Snow Depth Not available.
6:06 AM 7:16 PM
Last Quarter, 45% visible
METAR KLAS 251456Z 18007KT 10SM FEW250 31/02 A2990 RMK AO2 SLP095 HZ AND FU VC ALQDS T03060022 53016 $

10-Day Weather Forecast

Almanac

Astronomy

Aug. 25, 2016 Rise Set
Actual Time
Civil Twilight
Nautical Twilight
Astronomical Twilight
Moon
Length of Visible Light
Length of Day
Tomorrow will be .
, % of the Moon is Illuminated

Today's Extremes

State Highs State Lows

Community

WunderPhotos

Upload Photos

1,934,854 photos uploaded!

WunderBlog® & News

Nearby

Air Quality

  Air Quality AQ Index Pollutant
Not available.

Snow Depth

Station Depth Elevation

Earthquake Activity

City Distance Mag. Time & Date
Minimum magnitude displayed is 2.5.

Coastal Water Temperatures

Place Temperature

Stations

Nearby Weather Stations

Station Location Temp. Windchill Dew Point Humidity Wind Precip. Elev Updated Type
                   

Watches & Warnings

There are currently no watches in effect.